createdAt,value
2022-07-28T00:01:12.420Z,65.75
2022-07-28T00:03:40.309Z,65.62
2022-07-28T00:06:06.952Z,65.44
2022-07-28T00:08:33.581Z,65.59
2022-07-28T00:11:00.252Z,65.44
2022-07-28T00:13:26.944Z,65.23
2022-07-28T00:15:53.612Z,65.06
2022-07-28T00:18:20.300Z,65.19
2022-07-28T00:20:46.972Z,65.29
2022-07-28T00:23:13.595Z,65.35
2022-07-28T00:25:40.226Z,65.74
2022-07-28T00:28:07.220Z,66.86
2022-07-28T00:30:33.865Z,67.68
2022-07-28T00:33:00.655Z,68.17
2022-07-28T00:35:30.961Z,67.60
2022-07-28T00:37:59.578Z,67.52
2022-07-28T00:40:46.981Z,67.23
2022-07-28T00:43:14.216Z,67.06
2022-07-28T00:45:41.005Z,67.21
2022-07-28T00:48:07.675Z,67.89
2022-07-28T00:50:34.419Z,68.56
2022-07-28T00:53:01.247Z,68.76
2022-07-28T00:55:27.992Z,68.94
2022-07-28T00:57:54.748Z,70.05
2022-07-28T01:00:21.584Z,69.88
2022-07-28T01:02:48.642Z,69.65
2022-07-28T01:05:15.964Z,69.28
2022-07-28T01:08:03.661Z,69.26
2022-07-28T01:10:56.150Z,69.01
2022-07-28T01:13:45.236Z,69.47
2022-07-28T01:16:12.310Z,70.46
2022-07-28T01:18:48.025Z,72.73
2022-07-28T01:21:19.963Z,72.27
2022-07-28T01:23:58.755Z,71.06
2022-07-28T01:26:38.743Z,70.44
2022-07-28T01:29:30.000Z,69.86
2022-07-28T01:32:03.802Z,69.90
2022-07-28T01:34:49.029Z,70.30
2022-07-28T01:37:19.860Z,71.08
2022-07-28T01:39:47.472Z,70.60
2022-07-28T01:42:15.669Z,71.34
2022-07-28T01:44:47.555Z,72.40
2022-07-28T01:47:15.345Z,72.09
2022-07-28T01:49:45.071Z,72.09
2022-07-28T01:52:11.727Z,73.00
2022-07-28T01:54:41.929Z,73.38
2022-07-28T01:57:14.428Z,73.40
2022-07-28T01:59:42.755Z,73.19
2022-07-28T02:02:11.156Z,73.15
2022-07-28T02:04:40.555Z,73.60
2022-07-28T02:07:10.311Z,73.32
2022-07-28T02:09:38.080Z,72.93
2022-07-28T02:12:05.980Z,74.27
2022-07-28T02:14:36.285Z,74.27
2022-07-28T02:17:08.415Z,75.61
2022-07-28T02:19:36.936Z,75.71
2022-07-28T02:22:06.194Z,74.98
2022-07-28T02:24:34.854Z,75.42
2022-07-28T02:27:10.036Z,76.33
2022-07-28T02:29:51.282Z,75.95
2022-07-28T02:32:52.369Z,75.88
2022-07-28T02:35:40.496Z,75.25
2022-07-28T02:38:17.724Z,76.41
2022-07-28T02:40:46.454Z,76.24
2022-07-28T02:43:17.960Z,75.94
2022-07-28T02:45:51.730Z,76.25
2022-07-28T02:48:23.349Z,76.03
2022-07-28T02:50:52.982Z,75.64
2022-07-28T02:53:22.389Z,76.41
2022-07-28T02:55:50.231Z,76.67
2022-07-28T02:58:22.405Z,76.53
2022-07-28T03:00:50.680Z,76.81
2022-07-28T03:03:18.504Z,76.29
2022-07-28T03:05:46.236Z,76.19
2022-07-28T03:08:14.116Z,76.25
2022-07-28T03:10:41.835Z,77.09
2022-07-28T03:13:08.702Z,77.28
2022-07-28T03:15:36.953Z,77.58
2022-07-28T03:18:05.540Z,77.36
2022-07-28T03:20:32.502Z,77.26
2022-07-28T03:22:59.472Z,77.76
2022-07-28T03:25:41.301Z,78.38
2022-07-28T03:28:13.031Z,78.84
2022-07-28T03:30:42.933Z,78.55
2022-07-28T03:33:09.955Z,79.54
2022-07-28T03:35:39.754Z,79.74
2022-07-28T03:38:14.524Z,80.52
2022-07-28T03:40:46.553Z,80.14
2022-07-28T03:43:16.463Z,80.28
2022-07-28T03:45:46.454Z,79.41
2022-07-28T03:48:14.890Z,79.78
2022-07-28T03:50:41.731Z,80.11
2022-07-28T03:53:35.173Z,79.76
2022-07-28T03:56:03.299Z,79.63
2022-07-28T03:58:30.776Z,79.83
2022-07-28T04:00:58.218Z,79.30
2022-07-28T04:03:42.637Z,79.53
2022-07-28T04:06:10.840Z,80.54
2022-07-28T04:08:37.639Z,81.57
2022-07-28T04:11:04.272Z,81.86
2022-07-28T04:13:36.489Z,82.41
2022-07-28T04:16:03.520Z,82.68
2022-07-28T04:18:30.214Z,81.42
2022-07-28T04:20:56.923Z,81.41
2022-07-28T04:23:24.187Z,80.75
2022-07-28T04:25:50.908Z,80.66
2022-07-28T04:28:17.618Z,79.88
2022-07-28T04:30:44.883Z,80.42
2022-07-28T04:33:13.860Z,81.65
2022-07-28T04:35:42.857Z,81.31
2022-07-28T04:38:09.537Z,81.11
2022-07-28T04:40:36.225Z,80.18
2022-07-28T04:43:03.881Z,79.67
2022-07-28T04:45:30.834Z,79.13
2022-07-28T04:47:57.524Z,79.07
2022-07-28T04:50:24.250Z,79.95
2022-07-28T04:52:58.697Z,80.95
2022-07-28T04:55:26.065Z,81.47
2022-07-28T04:57:52.738Z,82.18
2022-07-28T05:00:19.973Z,81.71
2022-07-28T05:02:50.038Z,82.00
2022-07-28T05:05:16.942Z,82.52
2022-07-28T05:07:44.185Z,82.40
2022-07-28T05:10:12.391Z,82.01
2022-07-28T05:12:39.466Z,83.31
2022-07-28T05:15:07.417Z,84.78
2022-07-28T05:17:34.350Z,83.64
2022-07-28T05:20:01.038Z,83.04
2022-07-28T05:22:47.647Z,83.11
2022-07-28T05:25:18.700Z,82.51
2022-07-28T05:27:46.542Z,82.05
2022-07-28T05:30:14.322Z,81.60
2022-07-28T05:32:41.673Z,82.32
2022-07-28T05:35:12.399Z,83.61
2022-07-28T05:37:39.055Z,83.24
2022-07-28T05:40:11.837Z,82.97
2022-07-28T05:42:39.921Z,81.89
2022-07-28T05:45:15.013Z,82.85
2022-07-28T05:47:46.348Z,81.47
2022-07-28T05:50:14.990Z,80.45
2022-07-28T05:52:41.824Z,80.56
2022-07-28T05:55:09.806Z,80.56
2022-07-28T05:57:37.569Z,82.60
2022-07-28T06:00:09.514Z,82.28
2022-07-28T06:02:40.230Z,81.64
2022-07-28T06:05:07.815Z,80.53
2022-07-28T06:07:43.259Z,81.14
2022-07-28T06:10:16.765Z,81.87
2022-07-28T06:12:46.795Z,80.92
2022-07-28T06:15:15.305Z,80.09
2022-07-28T06:17:42.345Z,79.50
2022-07-28T06:20:10.244Z,79.36
2022-07-28T06:22:47.773Z,77.83
2022-07-28T06:25:16.773Z,77.14
2022-07-28T06:27:45.710Z,76.43
2022-07-28T06:30:12.911Z,76.77
2022-07-28T06:32:39.748Z,78.04
2022-07-28T06:35:07.044Z,77.73
2022-07-28T06:37:33.754Z,78.02
2022-07-28T06:40:00.518Z,78.52
2022-07-28T06:42:27.480Z,78.15
2022-07-28T06:45:01.291Z,77.29
2022-07-28T06:47:27.949Z,78.06
2022-07-28T06:49:54.591Z,78.54
2022-07-28T06:52:22.072Z,78.04
2022-07-28T06:54:51.611Z,76.49
2022-07-28T06:57:21.118Z,76.55
2022-07-28T06:59:49.567Z,75.77
2022-07-28T07:02:17.628Z,74.23
2022-07-28T07:04:45.442Z,73.65
2022-07-28T07:07:17.122Z,73.58
2022-07-28T07:09:44.418Z,72.51
2022-07-28T07:12:11.127Z,72.40
2022-07-28T07:14:37.886Z,70.66
2022-07-28T07:17:04.580Z,70.37
2022-07-28T07:19:31.318Z,68.98
2022-07-28T07:21:58.004Z,67.94
2022-07-28T07:24:24.762Z,67.86
2022-07-28T07:26:51.780Z,67.17
2022-07-28T07:29:19.801Z,67.97
2022-07-28T07:31:46.627Z,68.18
2022-07-28T07:34:19.507Z,67.14
2022-07-28T07:36:46.305Z,66.75
2022-07-28T07:39:13.458Z,65.52
2022-07-28T07:41:40.158Z,65.12
2022-07-28T07:44:07.210Z,64.56
2022-07-28T07:46:36.263Z,64.18
2022-07-28T07:49:03.084Z,65.39
2022-07-28T07:51:29.780Z,65.62
2022-07-28T07:53:56.525Z,64.28
2022-07-28T07:56:23.217Z,63.36
2022-07-28T07:58:56.456Z,63.34
2022-07-28T08:01:23.616Z,63.89
2022-07-28T08:03:50.680Z,63.53
2022-07-28T08:06:17.876Z,62.91
2022-07-28T08:08:59.444Z,61.84
2022-07-28T08:11:26.210Z,60.60
2022-07-28T08:13:52.966Z,60.32
2022-07-28T08:16:19.918Z,60.89
2022-07-28T08:18:46.651Z,59.51
2022-07-28T08:21:14.617Z,59.87
2022-07-28T08:23:41.467Z,58.21
2022-07-28T08:26:08.256Z,57.43
2022-07-28T08:28:35.174Z,57.72
2022-07-28T08:31:02.103Z,57.31
2022-07-28T08:33:28.914Z,58.32
2022-07-28T08:35:55.609Z,59.06
2022-07-28T08:38:22.320Z,59.20
2022-07-28T08:40:50.155Z,60.29
2022-07-28T08:43:33.548Z,58.19
2022-07-28T08:46:02.241Z,57.40
2022-07-28T08:48:36.955Z,55.91
2022-07-28T08:51:09.387Z,54.78
2022-07-28T08:53:38.142Z,54.52
2022-07-28T08:56:07.522Z,55.08
2022-07-28T08:58:35.984Z,55.27
2022-07-28T09:01:03.792Z,55.28
2022-07-28T09:03:30.612Z,55.74
2022-07-28T09:05:57.923Z,53.92
2022-07-28T09:08:25.347Z,53.12
2022-07-28T09:10:52.730Z,52.54
2022-07-28T09:13:19.705Z,52.70
2022-07-28T09:15:46.880Z,51.59
2022-07-28T09:18:14.980Z,51.43
2022-07-28T09:20:44.027Z,51.24
2022-07-28T09:23:41.938Z,50.79
2022-07-28T09:26:12.365Z,50.03
2022-07-28T09:28:51.619Z,50.00
2022-07-28T09:31:19.567Z,50.53
2022-07-28T09:34:00.998Z,50.63
2022-07-28T09:36:30.017Z,50.88
2022-07-28T09:38:56.912Z,48.51
2022-07-28T09:41:24.225Z,47.71
2022-07-28T09:43:55.247Z,46.83
2022-07-28T09:46:25.678Z,46.90
2022-07-28T09:48:58.110Z,46.66
2022-07-28T09:51:28.073Z,46.37
2022-07-28T09:54:13.295Z,46.35
2022-07-28T09:56:45.665Z,45.65
2022-07-28T09:59:15.094Z,44.46
2022-07-28T10:01:54.020Z,44.67
2022-07-28T10:04:41.276Z,45.38
2022-07-28T10:07:11.335Z,45.01
2022-07-28T10:09:39.169Z,44.97
2022-07-28T10:12:17.886Z,44.94
2022-07-28T10:14:46.345Z,44.49
2022-07-28T10:17:27.778Z,45.68
2022-07-28T10:19:58.338Z,44.37
2022-07-28T10:22:32.963Z,44.27
2022-07-28T10:25:02.528Z,44.72
2022-07-28T10:27:30.317Z,44.95
2022-07-28T10:30:00.143Z,45.17
2022-07-28T10:32:29.615Z,44.60
2022-07-28T10:35:02.722Z,43.75
2022-07-28T10:37:32.068Z,42.61
2022-07-28T10:40:09.805Z,42.17
2022-07-28T10:42:40.215Z,43.51
2022-07-28T10:45:10.060Z,43.28
2022-07-28T10:47:36.820Z,43.21
2022-07-28T10:50:04.289Z,42.49
2022-07-28T10:52:51.315Z,41.64
2022-07-28T10:55:46.455Z,41.95
2022-07-28T10:58:24.999Z,41.87
2022-07-28T11:01:02.170Z,42.07
2022-07-28T11:03:40.449Z,41.81
2022-07-28T11:06:36.970Z,40.56
2022-07-28T11:09:15.770Z,40.97
2022-07-28T11:11:57.828Z,40.27
2022-07-28T11:14:37.598Z,40.03
2022-07-28T11:17:04.659Z,41.22
2022-07-28T11:19:55.726Z,40.79
2022-07-28T11:22:32.858Z,41.80
2022-07-28T11:25:18.486Z,42.01
2022-07-28T11:27:49.709Z,41.54
2022-07-28T11:30:16.362Z,42.28
2022-07-28T11:32:53.394Z,42.09
2022-07-28T11:35:24.411Z,41.06
2022-07-28T11:38:03.182Z,42.11
2022-07-28T11:40:38.239Z,43.52
2022-07-28T11:43:30.636Z,43.96
2022-07-28T11:46:07.642Z,43.53
2022-07-28T11:48:42.871Z,42.55
2022-07-28T11:51:15.918Z,42.15
2022-07-28T11:53:50.740Z,41.15
2022-07-28T11:56:36.075Z,40.51
2022-07-28T11:59:04.723Z,40.42
2022-07-28T12:01:32.531Z,40.50
2022-07-28T12:04:12.256Z,39.97
2022-07-28T12:06:43.079Z,39.74
2022-07-28T12:09:11.301Z,39.16
2022-07-28T12:11:42.314Z,38.43
2022-07-28T12:14:18.485Z,38.59
2022-07-28T12:16:49.648Z,38.67
2022-07-28T12:19:19.007Z,40.20
2022-07-28T12:21:50.495Z,40.61
2022-07-28T12:24:20.268Z,39.99
2022-07-28T12:26:49.983Z,39.93
2022-07-28T12:29:19.870Z,38.74
2022-07-28T12:32:02.693Z,38.69
2022-07-28T12:34:31.302Z,38.26
2022-07-28T12:37:01.930Z,38.68
2022-07-28T12:39:30.873Z,38.68
2022-07-28T12:42:05.702Z,38.29
2022-07-28T12:44:40.440Z,38.75
2022-07-28T12:47:10.805Z,39.52
2022-07-28T12:49:40.597Z,39.38
2022-07-28T12:52:21.609Z,39.15
2022-07-28T12:54:53.357Z,39.34
2022-07-28T12:57:50.509Z,39.52
2022-07-28T13:00:20.613Z,39.57
2022-07-28T13:02:48.950Z,39.25
2022-07-28T13:05:27.500Z,39.17
2022-07-28T13:08:02.460Z,39.45
2022-07-28T13:10:30.223Z,39.52
2022-07-28T13:13:06.431Z,39.85
2022-07-28T13:15:36.172Z,39.46
2022-07-28T13:18:04.885Z,39.81
2022-07-28T13:20:36.588Z,40.04
2022-07-28T13:23:03.237Z,40.31
2022-07-28T13:25:30.029Z,39.75
2022-07-28T13:27:56.702Z,39.28
2022-07-28T13:30:23.878Z,38.91
2022-07-28T13:32:50.892Z,37.34
2022-07-28T13:35:19.099Z,37.51
2022-07-28T13:37:48.378Z,37.09
2022-07-28T13:40:15.171Z,37.74
2022-07-28T13:42:52.982Z,37.83
2022-07-28T13:45:24.366Z,38.26
2022-07-28T13:47:52.202Z,38.26
2022-07-28T13:50:20.590Z,38.21
2022-07-28T13:52:48.361Z,38.99
2022-07-28T13:55:15.972Z,38.21
2022-07-28T13:57:45.919Z,37.55
2022-07-28T14:00:18.110Z,38.28
2022-07-28T14:02:48.628Z,38.37
2022-07-28T14:05:15.956Z,38.72
2022-07-28T14:07:48.030Z,39.20
2022-07-28T14:10:17.787Z,38.98
2022-07-28T14:12:44.935Z,39.49
2022-07-28T14:15:12.946Z,40.01
2022-07-28T14:17:45.700Z,40.16
2022-07-28T14:20:16.363Z,40.40
2022-07-28T14:22:44.617Z,40.65
2022-07-28T14:25:19.786Z,40.60
2022-07-28T14:27:49.028Z,40.45
2022-07-28T14:30:15.688Z,40.54
2022-07-28T14:32:42.486Z,39.72
2022-07-28T14:35:09.444Z,40.68
2022-07-28T14:38:11.294Z,40.66
2022-07-28T14:40:23.722Z,39.83
2022-07-28T14:42:50.365Z,39.54
2022-07-28T14:45:17.067Z,39.36
2022-07-28T14:47:44.967Z,39.19
2022-07-28T14:50:12.601Z,39.67
2022-07-28T14:52:39.328Z,39.75
2022-07-28T14:55:06.617Z,39.30
2022-07-28T14:57:50.117Z,39.87
2022-07-28T15:00:21.599Z,39.95
2022-07-28T15:02:48.451Z,39.91
2022-07-28T15:05:15.236Z,39.70
2022-07-28T15:07:42.396Z,40.24
2022-07-28T15:10:10.462Z,40.13
2022-07-28T15:12:37.712Z,39.24
2022-07-28T15:15:05.328Z,40.04
2022-07-28T15:17:32.065Z,39.82
2022-07-28T15:19:59.909Z,39.96
2022-07-28T15:22:26.778Z,39.52
2022-07-28T15:24:53.542Z,39.16
2022-07-28T15:27:20.322Z,39.03
2022-07-28T15:29:48.028Z,38.65
2022-07-28T15:32:19.597Z,39.03
2022-07-28T15:34:53.860Z,39.21
2022-07-28T15:37:20.566Z,39.07
2022-07-28T15:39:47.651Z,39.56
2022-07-28T15:42:14.846Z,39.30
2022-07-28T15:44:41.623Z,39.84
2022-07-28T15:47:08.415Z,39.06
2022-07-28T15:49:36.145Z,39.02
2022-07-28T15:52:04.334Z,38.68
2022-07-28T15:54:31.198Z,38.84
2022-07-28T15:56:57.980Z,39.18
2022-07-28T15:59:25.421Z,38.71
2022-07-28T16:01:52.192Z,38.75
2022-07-28T16:04:19.240Z,38.92
2022-07-28T16:07:04.694Z,38.66
2022-07-28T16:09:46.448Z,36.21
2022-07-28T16:12:14.609Z,33.87
2022-07-28T16:14:42.345Z,33.27
2022-07-28T16:17:09.860Z,32.46
2022-07-28T16:19:48.401Z,34.06
2022-07-28T16:22:17.169Z,34.98
2022-07-28T16:24:44.044Z,36.39
2022-07-28T16:27:10.798Z,37.70
2022-07-28T16:29:38.035Z,38.36
2022-07-28T16:32:05.400Z,38.74
2022-07-28T16:34:32.360Z,39.22
2022-07-28T16:36:59.016Z,39.40
2022-07-28T16:39:25.804Z,39.60
2022-07-28T16:41:53.123Z,39.39
2022-07-28T16:44:20.423Z,38.88
2022-07-28T16:46:47.557Z,39.05
2022-07-28T16:49:15.956Z,39.12
2022-07-28T16:51:42.853Z,39.72
2022-07-28T16:54:09.635Z,39.41
2022-07-28T16:56:36.367Z,38.87
2022-07-28T16:59:03.493Z,37.10
2022-07-28T17:01:30.185Z,36.59
2022-07-28T17:03:56.892Z,35.68
2022-07-28T17:06:23.544Z,34.90
2022-07-28T17:08:50.350Z,35.08
2022-07-28T17:11:17.300Z,34.21
2022-07-28T17:13:45.578Z,34.05
2022-07-28T17:16:13.411Z,34.85
2022-07-28T17:18:42.494Z,35.49
2022-07-28T17:21:09.165Z,36.59
2022-07-28T17:23:39.299Z,37.25
2022-07-28T17:28:54.032Z,37.96
2022-07-28T17:31:21.163Z,36.77
2022-07-28T17:33:47.930Z,37.22
2022-07-28T17:36:17.620Z,37.93
2022-07-28T17:38:44.401Z,38.33
2022-07-28T17:41:11.185Z,37.82
2022-07-28T17:43:42.303Z,35.43
2022-07-28T17:46:11.939Z,34.93
2022-07-28T17:48:39.856Z,34.55
2022-07-28T17:51:06.730Z,35.79
2022-07-28T17:53:33.678Z,35.49
2022-07-28T17:56:06.998Z,35.68
2022-07-28T17:58:36.218Z,37.29
2022-07-28T18:01:10.629Z,38.82
2022-07-28T18:03:59.189Z,39.58
2022-07-28T18:06:40.339Z,40.32
2022-07-28T18:09:13.412Z,41.21
2022-07-28T18:11:56.835Z,41.20
2022-07-28T18:14:27.135Z,41.47
2022-07-28T18:16:54.889Z,41.57
2022-07-28T18:19:23.361Z,41.92
2022-07-28T18:22:02.712Z,41.63
2022-07-28T18:24:29.422Z,41.62
2022-07-28T18:26:56.088Z,41.80
2022-07-28T18:29:23.032Z,41.99
2022-07-28T18:31:57.749Z,42.15
2022-07-28T18:34:26.663Z,42.59
2022-07-28T18:36:56.709Z,42.80
2022-07-28T18:39:30.939Z,43.41
2022-07-28T18:41:57.748Z,43.33
2022-07-28T18:44:24.616Z,43.65
2022-07-28T18:46:51.662Z,43.68
2022-07-28T18:49:19.936Z,43.59
2022-07-28T18:51:49.346Z,43.93
2022-07-28T18:54:21.538Z,44.18
2022-07-28T18:57:11.955Z,43.96
2022-07-28T18:59:43.866Z,44.19
2022-07-28T19:02:13.922Z,44.27
2022-07-28T19:04:42.064Z,44.19
2022-07-28T19:07:08.960Z,44.59
2022-07-28T19:09:38.904Z,44.54
2022-07-28T19:12:09.368Z,44.82
2022-07-28T19:14:36.322Z,44.81
2022-07-28T19:17:05.544Z,44.71
2022-07-28T19:19:38.708Z,45.30
2022-07-28T19:22:07.337Z,45.38
2022-07-28T19:24:35.190Z,45.63
2022-07-28T19:27:05.181Z,45.47
2022-07-28T19:29:32.606Z,45.66
2022-07-28T19:32:01.624Z,45.96
2022-07-28T19:34:28.409Z,45.95
2022-07-28T19:36:56.231Z,45.81
2022-07-28T19:39:23.506Z,46.36
2022-07-28T19:41:50.296Z,46.22
2022-07-28T19:44:17.522Z,46.17
2022-07-28T19:46:45.385Z,46.66
2022-07-28T19:49:12.747Z,46.95
2022-07-28T19:51:44.188Z,47.16
2022-07-28T19:54:13.184Z,46.97
2022-07-28T19:56:42.246Z,46.73
2022-07-28T19:59:09.634Z,47.02
2022-07-28T20:01:36.544Z,47.33
2022-07-28T20:04:12.935Z,47.31
2022-07-28T20:06:39.772Z,47.54
2022-07-28T20:09:06.626Z,47.41
2022-07-28T20:11:33.773Z,47.28
2022-07-28T20:14:01.230Z,47.37
2022-07-28T20:16:28.223Z,47.26
2022-07-28T20:18:56.866Z,47.46
2022-07-28T20:21:24.878Z,47.15
2022-07-28T20:23:56.923Z,47.21
2022-07-28T20:26:26.664Z,47.40
2022-07-28T20:28:55.445Z,46.95
2022-07-28T20:31:22.279Z,46.57
2022-07-28T20:33:50.225Z,47.22
2022-07-28T20:36:16.980Z,47.19
2022-07-28T20:38:45.169Z,46.88
2022-07-28T20:41:12.325Z,46.96
2022-07-28T20:43:41.518Z,47.06
2022-07-28T20:46:08.450Z,47.20
2022-07-28T20:48:35.761Z,47.14
2022-07-28T20:51:02.533Z,46.82
2022-07-28T20:53:29.221Z,47.28
2022-07-28T20:55:56.056Z,47.21
2022-07-28T20:58:22.759Z,47.64
2022-07-28T21:00:50.847Z,47.64
2022-07-28T21:03:17.912Z,47.61
2022-07-28T21:05:44.617Z,47.55
2022-07-28T21:08:16.186Z,47.53
2022-07-28T21:10:44.228Z,47.54
2022-07-28T21:13:11.311Z,47.66
2022-07-28T21:15:38.119Z,47.42
2022-07-28T21:18:05.019Z,47.44
2022-07-28T21:20:31.854Z,47.17
2022-07-28T21:22:58.601Z,47.56
2022-07-28T21:25:25.301Z,47.42
2022-07-28T21:28:10.950Z,47.93
2022-07-28T21:30:38.063Z,47.51
2022-07-28T21:33:05.391Z,47.71
2022-07-28T21:35:32.161Z,47.37
2022-07-28T21:37:59.430Z,47.91
2022-07-28T21:40:26.323Z,47.85
2022-07-28T21:42:53.076Z,47.67
2022-07-28T21:45:19.955Z,47.40
2022-07-28T21:47:46.777Z,47.78
2022-07-28T21:50:14.058Z,47.68
2022-07-28T21:52:40.822Z,48.13
2022-07-28T21:55:09.347Z,48.29
2022-07-28T21:57:36.326Z,48.05
2022-07-28T22:00:06.612Z,48.22
2022-07-28T22:02:33.517Z,48.74
2022-07-28T22:05:01.016Z,48.96
2022-07-28T22:07:28.094Z,48.71
2022-07-28T22:09:54.853Z,49.36
2022-07-28T22:12:21.631Z,49.48
2022-07-28T22:14:48.328Z,50.06
2022-07-28T22:17:14.969Z,50.23
2022-07-28T22:19:41.786Z,50.21
2022-07-28T22:22:08.605Z,51.89
2022-07-28T22:24:35.332Z,51.98
2022-07-28T22:27:34.579Z,53.16
2022-07-28T22:30:02.835Z,56.16
2022-07-28T22:32:29.603Z,56.93
2022-07-28T22:34:58.146Z,57.63
2022-07-28T22:37:24.868Z,61.43
2022-07-28T22:39:51.728Z,62.07
2022-07-28T22:42:18.418Z,69.18
2022-07-28T22:45:06.406Z,72.29
2022-07-28T22:47:33.051Z,78.59
2022-07-28T22:49:59.702Z,78.01
2022-07-28T22:52:27.992Z,79.17
2022-07-28T22:54:55.150Z,80.58
2022-07-28T22:57:22.082Z,80.36
2022-07-28T22:59:51.068Z,81.02
2022-07-28T23:02:18.662Z,81.57
2022-07-28T23:04:51.135Z,84.54
2022-07-28T23:07:18.414Z,85.77
2022-07-28T23:09:45.128Z,86.50
2022-07-28T23:12:11.839Z,88.12
2022-07-28T23:14:38.582Z,89.06
2022-07-28T23:17:05.311Z,89.90
2022-07-28T23:19:31.991Z,88.88
2022-07-28T23:21:58.708Z,88.14
2022-07-28T23:24:25.481Z,87.90
2022-07-28T23:26:52.139Z,89.54
2022-07-28T23:29:18.790Z,91.11
2022-07-28T23:31:45.481Z,92.33
2022-07-28T23:34:12.219Z,93.26
2022-07-28T23:36:38.904Z,96.74
2022-07-28T23:39:05.554Z,100.00
2022-07-28T23:41:32.282Z,98.99
2022-07-28T23:43:59.214Z,98.71
2022-07-28T23:46:25.907Z,97.27
2022-07-28T23:48:52.754Z,98.36
2022-07-28T23:51:21.049Z,100.00
2022-07-28T23:53:49.888Z,100.00
2022-07-28T23:56:19.676Z,100.00
2022-07-28T23:58:46.285Z,100.00
